Time;durP1;ratioP1;P1;durP2;ratioP2;P2;SDS_P1;SDS_P2;PMS_P1;PMS_P2;Temp;Humidity;BMP_temperature;BMP_pressure;BME280_temperature;BME280_humidity;BME280_pressure;Samples;Min_cycle;Max_cycle;Signal;HPM_P1;HPM_P2
2024/01/28 00:00:57;;;;;;;3.50;2.70;;;0.80;54.70;;;;;;6264730;28;20260;-63
2024/01/28 00:03:58;;;;;;;4.10;2.10;;;0.80;55.10;;;;;;6256477;28;20217;-63
2024/01/28 00:06:58;;;;;;;3.03;2.57;;;0.90;55.00;;;;;;6266405;28;20190;-63
2024/01/28 00:09:59;;;;;;;4.70;2.40;;;0.80;55.40;;;;;;6238544;28;20194;-63
2024/01/28 00:13:00;;;;;;;8.13;3.00;;;0.70;55.90;;;;;;6241252;28;20225;-63
2024/01/28 00:16:00;;;;;;;9.97;4.60;;;0.80;55.50;;;;;;6243263;28;20282;-63
2024/01/28 00:19:01;;;;;;;5.07;2.97;;;0.80;56.20;;;;;;6236203;28;20216;-63
2024/01/28 00:22:03;;;;;;;4.40;2.50;;;0.90;56.00;;;;;;6249774;28;20212;-63
2024/01/28 00:25:04;;;;;;;5.23;2.30;;;0.90;55.50;;;;;;6253241;28;20213;-63
2024/01/28 00:28:05;;;;;;;5.83;2.30;;;0.90;55.70;;;;;;6243662;28;20221;-63
2024/01/28 00:31:12;;;;;;;2.87;2.10;;;1.00;55.40;;;;;;6268197;28;20186;-63
2024/01/28 00:34:13;;;;;;;4.53;2.67;;;1.00;55.20;;;;;;6243605;28;20203;-63
2024/01/28 00:37:13;;;;;;;2.50;2.30;;;1.00;54.80;;;;;;6243135;28;20205;-63
2024/01/28 00:40:14;;;;;;;3.33;1.97;;;1.00;55.20;;;;;;6265625;28;20649;-63
2024/01/28 00:43:15;;;;;;;4.07;1.77;;;0.90;55.30;;;;;;6281138;28;20221;-63
2024/01/28 00:46:16;;;;;;;3.67;1.83;;;0.90;55.00;;;;;;6235766;28;20223;-63
2024/01/28 00:49:17;;;;;;;3.17;1.90;;;0.80;54.90;;;;;;6246305;28;20196;-63
2024/01/28 00:52:18;;;;;;;3.17;2.07;;;0.80;55.00;;;;;;6245365;28;20201;-63
2024/01/28 00:55:18;;;;;;;3.17;2.10;;;0.80;55.10;;;;;;6240004;28;20226;-63
2024/01/28 00:58:19;;;;;;;4.67;2.50;;;0.80;55.40;;;;;;6265392;28;20193;-63
2024/01/28 01:01:20;;;;;;;3.50;2.40;;;0.80;55.20;;;;;;6244129;28;20261;-63
2024/01/28 01:04:20;;;;;;;3.50;2.37;;;0.70;55.00;;;;;;6257782;28;20315;-63
2024/01/28 01:07:21;;;;;;;4.13;2.33;;;0.60;55.90;;;;;;6249241;28;20341;-63
2024/01/28 01:10:25;;;;;;;4.80;1.97;;;0.60;56.20;;;;;;6251460;28;20198;-63
2024/01/28 01:13:26;;;;;;;3.47;2.00;;;0.60;56.60;;;;;;6247300;28;20201;-63
2024/01/28 01:16:27;;;;;;;2.27;1.60;;;0.60;56.50;;;;;;6249119;28;20194;-63
2024/01/28 01:19:28;;;;;;;1.83;1.27;;;0.50;56.50;;;;;;6251251;28;20218;-63
2024/01/28 01:22:28;;;;;;;3.37;1.60;;;0.50;56.60;;;;;;6271933;28;20278;-63
2024/01/28 01:25:29;;;;;;;2.63;1.57;;;0.50;56.30;;;;;;6248134;28;20187;-63
2024/01/28 01:28:32;;;;;;;2.93;1.70;;;0.50;56.50;;;;;;6246183;28;20187;-63
2024/01/28 01:31:33;;;;;;;5.90;2.00;;;0.40;56.50;;;;;;6247928;28;20263;-63
2024/01/28 01:34:34;;;;;;;2.70;1.90;;;0.40;56.60;;;;;;6247165;28;20293;-63
2024/01/28 01:37:34;;;;;;;3.20;1.80;;;0.40;57.00;;;;;;6246646;28;20232;-63
2024/01/28 01:40:35;;;;;;;4.03;1.97;;;0.40;57.00;;;;;;6234145;28;20191;-63
2024/01/28 01:43:36;;;;;;;4.00;1.67;;;0.30;56.50;;;;;;6259205;28;20214;-63
2024/01/28 01:46:38;;;;;;;3.37;1.73;;;0.40;56.40;;;;;;6259322;28;20292;-63
2024/01/28 01:49:38;;;;;;;2.37;1.30;;;0.40;56.30;;;;;;6260957;28;20193;-63
2024/01/28 01:52:41;;;;;;;1.87;1.20;;;0.20;56.50;;;;;;6250244;28;20193;-63
2024/01/28 01:55:42;;;;;;;2.30;1.50;;;0.30;56.50;;;;;;6255756;28;20198;-63
2024/01/28 01:58:43;;;;;;;2.53;1.50;;;0.30;56.60;;;;;;6281012;28;20264;-63
2024/01/28 02:01:44;;;;;;;2.57;1.47;;;0.30;56.80;;;;;;6241578;28;20250;-63
2024/01/28 02:04:45;;;;;;;1.93;1.23;;;0.30;57.20;;;;;;6257531;28;20189;-63
2024/01/28 02:07:46;;;;;;;3.20;1.63;;;0.30;57.00;;;;;;6249901;28;20289;-63
2024/01/28 02:10:46;;;;;;;2.23;1.37;;;0.30;57.00;;;;;;6252724;28;20192;-63
2024/01/28 02:13:47;;;;;;;2.17;1.13;;;0.20;57.20;;;;;;6258013;28;20221;-63
2024/01/28 02:16:48;;;;;;;1.53;1.40;;;0.20;57.20;;;;;;6252868;28;20193;-63
2024/01/28 02:19:49;;;;;;;2.03;1.30;;;0.20;57.40;;;;;;6248004;28;20190;-63
2024/01/28 02:22:49;;;;;;;2.20;1.30;;;0.20;57.50;;;;;;6237372;28;20233;-63
2024/01/28 02:25:50;;;;;;;2.27;1.30;;;0.10;57.50;;;;;;6234394;28;20192;-63
2024/01/28 02:28:51;;;;;;;3.33;1.40;;;0.00;58.30;;;;;;6258544;28;20182;-63
2024/01/28 02:31:51;;;;;;;2.47;1.30;;;0.10;58.00;;;;;;6247184;28;20229;-63
2024/01/28 02:34:52;;;;;;;1.70;1.10;;;0.20;58.20;;;;;;6260826;28;20316;-63
2024/01/28 02:37:53;;;;;;;2.37;1.40;;;0.20;58.40;;;;;;6231292;28;20206;-63
2024/01/28 02:40:55;;;;;;;1.33;1.10;;;0.10;57.90;;;;;;6273457;28;20203;-63
2024/01/28 02:43:56;;;;;;;2.03;1.30;;;0.10;58.20;;;;;;6267146;28;20218;-63
2024/01/28 02:46:56;;;;;;;3.43;1.10;;;0.20;57.80;;;;;;6253734;28;20186;-63
2024/01/28 02:49:57;;;;;;;2.07;1.30;;;0.20;57.40;;;;;;6280604;28;20284;-63
2024/01/28 02:52:58;;;;;;;2.00;1.20;;;0.30;57.10;;;;;;6255574;28;20218;-63
2024/01/28 02:56:00;;;;;;;3.60;1.57;;;0.30;57.10;;;;;;6261551;28;20200;-63
2024/01/28 02:59:01;;;;;;;2.93;1.30;;;0.30;57.50;;;;;;6264075;28;20235;-63
2024/01/28 03:02:03;;;;;;;2.57;1.53;;;0.30;57.50;;;;;;6248580;28;20234;-63
2024/01/28 03:05:03;;;;;;;2.40;1.37;;;0.30;57.70;;;;;;6236448;28;20193;-63
2024/01/28 03:08:05;;;;;;;2.77;1.83;;;0.20;57.80;;;;;;6250008;28;20182;-63
2024/01/28 03:11:05;;;;;;;2.57;1.83;;;0.30;57.70;;;;;;6271327;28;20185;-63
2024/01/28 03:14:10;;;;;;;3.33;1.80;;;0.30;57.70;;;;;;6255735;28;20193;-63
2024/01/28 03:17:11;;;;;;;3.03;2.00;;;0.30;57.20;;;;;;6266313;28;20195;-63
2024/01/28 03:20:12;;;;;;;4.13;1.73;;;0.30;57.50;;;;;;6246870;28;20207;-63
2024/01/28 03:23:14;;;;;;;3.00;1.63;;;0.20;57.60;;;;;;6240639;28;20301;-63
2024/01/28 03:26:15;;;;;;;3.70;2.03;;;0.10;57.80;;;;;;6237483;28;20191;-63
2024/01/28 03:29:15;;;;;;;3.17;1.73;;;0.00;58.30;;;;;;6276022;28;20293;-63
2024/01/28 03:32:16;;;;;;;2.67;1.60;;;0.00;58.80;;;;;;6237728;28;20286;-63
2024/01/28 03:35:17;;;;;;;1.90;1.50;;;0.00;58.90;;;;;;6231167;28;20206;-63
2024/01/28 03:38:17;;;;;;;2.67;1.20;;;-0.10;59.20;;;;;;6267468;28;20228;-63
2024/01/28 03:41:18;;;;;;;1.60;1.10;;;-0.10;59.70;;;;;;6247508;28;20197;-63
2024/01/28 03:44:22;;;;;;;2.50;1.37;;;-0.10;59.70;;;;;;6240264;28;20225;-63
2024/01/28 03:47:23;;;;;;;2.97;1.43;;;-0.10;60.30;;;;;;6255354;28;20209;-63
2024/01/28 03:50:24;;;;;;;1.63;1.23;;;-0.20;60.30;;;;;;6263100;28;20197;-63
2024/01/28 03:53:25;;;;;;;3.17;1.53;;;-0.10;60.00;;;;;;6265726;28;20209;-63
2024/01/28 03:56:26;;;;;;;2.23;1.27;;;-0.20;59.80;;;;;;6267561;28;20203;-63
2024/01/28 03:59:27;;;;;;;2.83;1.40;;;-0.20;60.00;;;;;;6253525;28;20202;-63
2024/01/28 04:02:28;;;;;;;1.97;1.40;;;-0.10;59.70;;;;;;6244459;28;20221;-63
2024/01/28 04:05:29;;;;;;;2.03;1.60;;;-0.10;59.50;;;;;;6260720;28;20209;-63
2024/01/28 04:08:29;;;;;;;3.27;1.53;;;-0.10;59.60;;;;;;6245230;28;20189;-63
2024/01/28 04:11:30;;;;;;;1.77;1.30;;;-0.10;59.30;;;;;;6263767;28;20193;-63
2024/01/28 04:14:31;;;;;;;4.37;1.67;;;-0.10;59.40;;;;;;6245515;28;20207;-63
2024/01/28 04:17:31;;;;;;;2.70;1.43;;;-0.10;60.00;;;;;;6244750;28;20197;-63
2024/01/28 04:20:32;;;;;;;2.37;1.67;;;-0.10;59.90;;;;;;6232556;28;20199;-63
2024/01/28 04:23:33;;;;;;;3.37;1.80;;;-0.10;59.80;;;;;;6261870;28;20217;-63
2024/01/28 04:26:34;;;;;;;2.20;1.53;;;-0.10;59.60;;;;;;6244565;28;20190;-63
2024/01/28 04:29:34;;;;;;;2.07;1.37;;;0.00;59.10;;;;;;6240260;28;20205;-63
2024/01/28 04:32:35;;;;;;;2.83;1.60;;;0.00;58.90;;;;;;6251994;28;20194;-63
2024/01/28 04:35:36;;;;;;;3.30;1.60;;;-0.10;59.10;;;;;;6252651;28;20190;-63
2024/01/28 04:38:37;;;;;;;2.87;1.57;;;-0.10;59.30;;;;;;6263335;28;20190;-63
2024/01/28 04:41:38;;;;;;;4.70;1.90;;;-0.20;59.80;;;;;;6273162;28;20200;-63
2024/01/28 04:44:38;;;;;;;2.83;1.50;;;-0.20;60.10;;;;;;6247129;28;20194;-63
2024/01/28 04:47:39;;;;;;;2.77;1.37;;;-0.30;60.40;;;;;;6261502;28;20189;-63
2024/01/28 04:50:40;;;;;;;2.13;1.20;;;-0.20;60.80;;;;;;6245555;28;20182;-64
2024/01/28 04:53:41;;;;;;;1.77;1.20;;;-0.20;60.40;;;;;;6244965;28;20216;-63
2024/01/28 04:56:42;;;;;;;0.93;0.90;;;-0.20;60.70;;;;;;6243862;28;20190;-63
2024/01/28 04:59:43;;;;;;;1.77;0.90;;;-0.20;60.40;;;;;;6246375;28;20325;-63
2024/01/28 05:02:43;;;;;;;1.00;0.80;;;-0.20;59.70;;;;;;6249076;28;20214;-63
2024/01/28 05:05:44;;;;;;;1.40;1.00;;;-0.10;59.90;;;;;;6240287;28;20191;-63
2024/01/28 05:08:45;;;;;;;1.27;1.00;;;-0.20;60.40;;;;;;6240500;28;20224;-63
2024/01/28 05:11:46;;;;;;;1.07;0.83;;;-0.20;59.70;;;;;;6244780;28;20209;-63
2024/01/28 05:14:47;;;;;;;3.50;1.30;;;-0.30;60.10;;;;;;6239854;28;20190;-63
2024/01/28 05:17:47;;;;;;;1.90;1.53;;;-0.40;60.20;;;;;;6240852;28;20190;-63
2024/01/28 05:20:48;;;;;;;1.90;1.40;;;-0.40;60.10;;;;;;6253273;28;20197;-63
2024/01/28 05:23:50;;;;;;;2.63;1.10;;;-0.40;60.40;;;;;;6260311;28;20791;-63
2024/01/28 05:26:51;;;;;;;2.07;1.27;;;-0.50;60.40;;;;;;6266790;28;20211;-63
2024/01/28 05:29:54;;;;;;;2.87;0.90;;;-0.50;60.60;;;;;;6242181;28;20277;-63
2024/01/28 05:32:55;;;;;;;2.03;0.90;;;-0.60;60.70;;;;;;6237695;28;20198;-63
2024/01/28 05:35:57;;;;;;;2.33;1.30;;;-0.60;61.20;;;;;;6244644;28;20189;-63
2024/01/28 05:38:58;;;;;;;2.03;1.33;;;-0.60;61.40;;;;;;6246048;28;20198;-63
2024/01/28 05:41:58;;;;;;;1.40;1.30;;;-0.60;61.60;;;;;;6247575;28;20245;-64
2024/01/28 05:44:59;;;;;;;1.20;1.10;;;-0.60;61.30;;;;;;6252819;28;20218;-64
2024/01/28 05:48:01;;;;;;;1.57;1.20;;;-0.60;60.90;;;;;;6248041;28;20202;-64
2024/01/28 05:51:02;;;;;;;3.37;1.17;;;-0.50;61.00;;;;;;6224985;28;20209;-64
2024/01/28 05:54:03;;;;;;;3.20;1.33;;;-0.50;60.90;;;;;;6242859;28;20201;-65
2024/01/28 05:57:03;;;;;;;1.93;1.00;;;-0.60;60.80;;;;;;6239616;28;20273;-62
2024/01/28 06:00:06;;;;;;;1.60;1.17;;;-0.70;61.50;;;;;;6248911;28;20264;-64
2024/01/28 06:03:06;;;;;;;1.33;1.00;;;-0.70;61.50;;;;;;6269379;28;20290;-64
2024/01/28 06:06:08;;;;;;;1.50;1.20;;;-0.70;61.20;;;;;;6250497;28;20199;-63
2024/01/28 06:09:11;;;;;;;2.73;1.27;;;-0.70;61.60;;;;;;6249509;28;20185;-63
2024/01/28 06:12:12;;;;;;;2.60;1.60;;;-0.80;62.10;;;;;;6251288;28;20272;-64
2024/01/28 06:15:13;;;;;;;2.87;1.73;;;-0.70;62.40;;;;;;6243754;28;20206;-63
2024/01/28 06:18:14;;;;;;;2.53;1.70;;;-0.70;62.30;;;;;;6242026;28;20201;-63
2024/01/28 06:21:14;;;;;;;2.87;1.90;;;-0.70;62.10;;;;;;6234400;28;20199;-64
2024/01/28 06:24:15;;;;;;;2.00;1.73;;;-0.80;61.90;;;;;;6246757;28;20214;-63
2024/01/28 06:27:16;;;;;;;2.27;1.60;;;-0.90;62.10;;;;;;6254020;28;20194;-63
2024/01/28 06:30:16;;;;;;;3.03;1.50;;;-1.00;63.00;;;;;;6241201;28;20202;-62
2024/01/28 06:33:17;;;;;;;2.60;1.70;;;-1.00;63.00;;;;;;6239428;28;20207;-62
2024/01/28 06:36:21;;;;;;;2.60;1.30;;;-0.90;62.50;;;;;;6250641;28;20293;-64
2024/01/28 06:39:22;;;;;;;3.07;1.60;;;-0.90;62.60;;;;;;6255945;28;20201;-62
2024/01/28 06:42:23;;;;;;;2.33;1.70;;;-1.00;62.80;;;;;;6245464;28;20240;-62
2024/01/28 06:45:23;;;;;;;2.63;1.60;;;-1.00;63.10;;;;;;6246486;28;20248;-61
2024/01/28 06:48:24;;;;;;;3.40;1.67;;;-1.00;62.80;;;;;;6253087;28;20236;-62
2024/01/28 06:51:25;;;;;;;1.93;1.50;;;-1.00;63.30;;;;;;6235475;28;20203;-65
2024/01/28 06:54:25;;;;;;;2.93;1.53;;;-1.00;63.50;;;;;;6240157;28;20207;-61
2024/01/28 06:57:26;;;;;;;3.40;1.90;;;-1.00;64.10;;;;;;6250335;28;20200;-61
2024/01/28 07:00:27;;;;;;;2.00;1.40;;;-1.00;63.20;;;;;;6245141;28;20242;-62
2024/01/28 07:03:28;;;;;;;1.87;1.40;;;-1.10;63.40;;;;;;6239503;28;20222;-62
2024/01/28 07:06:28;;;;;;;2.90;1.87;;;-1.10;63.70;;;;;;6229824;28;20186;-62
2024/01/28 07:09:30;;;;;;;1.90;1.53;;;-1.10;64.00;;;;;;6235204;28;20200;-62
2024/01/28 07:12:31;;;;;;;1.67;1.33;;;-1.10;63.70;;;;;;6251260;28;20194;-61
2024/01/28 07:15:32;;;;;;;2.50;1.90;;;-1.10;63.70;;;;;;6247463;28;20218;-62
2024/01/28 07:18:33;;;;;;;3.07;1.80;;;-1.10;63.90;;;;;;6266816;28;20200;-61
2024/01/28 07:21:34;;;;;;;2.93;1.90;;;-1.10;63.60;;;;;;6275598;28;20278;-61
2024/01/28 07:24:34;;;;;;;2.43;1.73;;;-1.10;64.30;;;;;;6245929;28;20221;-61
2024/01/28 07:27:35;;;;;;;3.20;1.77;;;;;;;;;;6240951;28;20248;-61
2024/01/28 07:30:36;;;;;;;5.23;1.83;;;-1.10;64.40;;;;;;6234881;28;20192;-61
2024/01/28 07:33:37;;;;;;;2.70;1.80;;;-1.10;64.90;;;;;;6250673;28;20283;-61
2024/01/28 07:36:37;;;;;;;3.77;2.10;;;-1.10;64.40;;;;;;6259207;28;20222;-61
2024/01/28 07:39:38;;;;;;;3.47;2.10;;;-1.10;64.20;;;;;;6251758;28;20200;-62
2024/01/28 07:42:39;;;;;;;4.97;2.60;;;-1.00;64.30;;;;;;6259610;28;20317;-62
2024/01/28 07:45:42;;;;;;;2.93;2.30;;;-1.10;64.40;;;;;;6247079;28;20217;-62
2024/01/28 07:48:42;;;;;;;3.13;2.30;;;-1.10;64.50;;;;;;6245352;28;20195;-61
2024/01/28 07:51:43;;;;;;;2.83;2.30;;;-1.00;64.40;;;;;;6249276;28;20189;-62
2024/01/28 07:54:44;;;;;;;2.90;1.87;;;-1.00;65.50;;;;;;6241873;28;20275;-62
2024/01/28 07:57:44;;;;;;;4.40;2.10;;;-0.90;64.80;;;;;;6251380;28;20182;-62
2024/01/28 08:00:45;;;;;;;4.73;2.03;;;-0.90;65.20;;;;;;6249179;28;20242;-62
2024/01/28 08:03:46;;;;;;;1.67;1.47;;;-0.80;65.80;;;;;;6248959;28;20263;-62
2024/01/28 08:06:46;;;;;;;2.60;1.83;;;-0.80;65.60;;;;;;6263680;28;20193;-62
2024/01/28 08:09:47;;;;;;;3.63;1.90;;;-0.70;65.00;;;;;;6245871;28;20206;-62
2024/01/28 08:12:48;;;;;;;2.97;1.80;;;-0.60;64.70;;;;;;6250944;28;20196;-61
2024/01/28 08:15:48;;;;;;;2.43;1.67;;;-0.60;64.90;;;;;;6242065;28;20195;-62
2024/01/28 08:18:49;;;;;;;3.60;1.77;;;-0.50;64.50;;;;;;6236070;28;20308;-62
2024/01/28 08:21:50;;;;;;;3.17;2.00;;;-0.40;64.00;;;;;;6255820;28;20233;-62
2024/01/28 08:24:51;;;;;;;2.77;1.93;;;-0.40;63.90;;;;;;6229563;28;20202;-62
2024/01/28 08:27:51;;;;;;;3.50;1.90;;;-0.30;63.50;;;;;;6260172;28;20197;-62
2024/01/28 08:30:52;;;;;;;2.00;1.67;;;-0.20;63.50;;;;;;6263388;28;20197;-62
2024/01/28 08:33:53;;;;;;;3.17;1.80;;;-0.20;63.00;;;;;;6238871;28;20216;-61
2024/01/28 08:36:53;;;;;;;2.97;2.00;;;-0.10;62.60;;;;;;6236076;28;20202;-61
2024/01/28 08:39:54;;;;;;;1.90;1.70;;;-0.10;62.60;;;;;;6261464;28;20201;-61
2024/01/28 08:42:55;;;;;;;2.80;1.63;;;0.00;62.20;;;;;;6243473;28;20648;-61
2024/01/28 08:45:56;;;;;;;1.97;1.43;;;0.00;62.10;;;;;;6259501;28;20257;-61
2024/01/28 08:48:57;;;;;;;2.50;1.50;;;0.00;61.80;;;;;;6260830;28;20191;-61
2024/01/28 08:51:57;;;;;;;3.37;1.90;;;0.10;61.30;;;;;;6238245;28;20198;-61
2024/01/28 08:54:58;;;;;;;2.03;1.50;;;0.20;61.20;;;;;;6246982;28;20197;-61
2024/01/28 08:57:59;;;;;;;3.23;1.60;;;0.20;61.20;;;;;;6247718;28;20194;-61
2024/01/28 09:00:59;;;;;;;1.67;1.50;;;0.40;61.00;;;;;;6249038;28;20234;-61
2024/01/28 09:04:00;;;;;;;4.23;2.23;;;0.50;60.60;;;;;;6265902;28;20210;-62
2024/01/28 09:07:01;;;;;;;3.70;2.23;;;0.60;60.00;;;;;;6240193;28;20194;-61
2024/01/28 09:10:02;;;;;;;3.77;2.40;;;0.70;58.80;;;;;;6244118;28;20194;-61
2024/01/28 09:13:04;;;;;;;3.17;2.30;;;0.80;58.70;;;;;;6255983;28;20190;-61
2024/01/28 09:16:05;;;;;;;3.13;2.47;;;0.90;58.70;;;;;;6265184;28;20216;-61
2024/01/28 09:19:06;;;;;;;3.37;2.30;;;1.00;57.30;;;;;;6277179;28;20198;-61
2024/01/28 09:22:06;;;;;;;2.00;1.80;;;1.10;57.60;;;;;;6245728;28;20302;-61
2024/01/28 09:25:07;;;;;;;3.57;2.07;;;1.10;57.20;;;;;;6249932;28;20193;-61
2024/01/28 09:28:08;;;;;;;3.60;2.50;;;1.20;57.20;;;;;;6281576;28;20209;-61
2024/01/28 09:31:09;;;;;;;3.67;2.20;;;1.40;56.90;;;;;;6254885;28;20212;-61
2024/01/28 09:34:09;;;;;;;3.10;2.00;;;1.40;56.90;;;;;;6266647;28;20186;-62
2024/01/28 09:37:10;;;;;;;3.07;1.50;;;1.50;56.90;;;;;;6274148;28;20193;-61
2024/01/28 09:40:14;;;;;;;3.57;1.63;;;1.70;57.50;;;;;;6276452;28;20195;-62
2024/01/28 09:43:28;;;;;;;3.67;1.90;;;1.80;57.30;;;;;;6267791;28;20203;-61
2024/01/28 09:46:30;;;;;;;3.33;1.63;;;2.00;57.00;;;;;;6272711;28;20190;-62
2024/01/28 09:49:39;;;;;;;3.23;1.60;;;2.20;57.00;;;;;;6255283;28;20198;-62
2024/01/28 09:52:39;;;;;;;3.00;1.40;;;2.40;56.50;;;;;;6266352;28;20191;-62
2024/01/28 09:55:41;;;;;;;4.23;1.70;;;2.50;56.30;;;;;;6256712;28;20194;-62
2024/01/28 09:58:43;;;;;;;4.70;1.80;;;2.50;56.50;;;;;;6268761;28;20274;-62
2024/01/28 10:01:44;;;;;;;2.23;1.63;;;2.70;56.10;;;;;;6263553;28;20243;-62
2024/01/28 10:04:48;;;;;;;2.77;1.40;;;2.80;55.50;;;;;;6261816;28;20198;-62
2024/01/28 10:08:02;;;;;;;2.20;1.47;;;2.90;55.70;;;;;;6251788;28;20295;-62
2024/01/28 10:11:03;;;;;;;3.97;1.40;;;2.90;55.90;;;;;;6255353;28;20187;-61
2024/01/28 10:14:03;;;;;;;4.47;1.70;;;3.00;55.80;;;;;;6244355;28;20206;-61
2024/01/28 10:17:04;;;;;;;3.13;1.57;;;3.00;56.10;;;;;;6260237;28;20189;-61
2024/01/28 10:20:07;;;;;;;3.57;1.73;;;3.10;55.90;;;;;;6256277;28;20647;-61
2024/01/28 10:23:08;;;;;;;2.27;1.67;;;3.10;55.50;;;;;;6248712;28;20218;-61
2024/01/28 10:26:09;;;;;;;3.30;1.63;;;3.30;54.70;;;;;;6250037;28;20209;-62
2024/01/28 10:29:12;;;;;;;3.03;1.67;;;3.30;54.60;;;;;;6241640;28;20194;-61
2024/01/28 10:32:12;;;;;;;4.07;2.20;;;3.40;54.30;;;;;;6251779;28;20191;-62
2024/01/28 10:35:16;;;;;;;6.67;1.80;;;3.60;53.70;;;;;;6245615;28;20194;-62
2024/01/28 10:38:22;;;;;;;2.43;1.40;;;3.70;54.00;;;;;;6253502;28;20190;-61
2024/01/28 10:41:23;;;;;;;3.73;1.60;;;3.70;54.50;;;;;;6248822;28;20206;-61
2024/01/28 10:44:25;;;;;;;4.53;2.07;;;3.80;54.00;;;;;;6253375;28;20302;-62
2024/01/28 10:47:30;;;;;;;3.83;1.87;;;3.90;54.20;;;;;;6258827;28;20197;-61
2024/01/28 10:50:32;;;;;;;5.13;1.93;;;3.90;54.30;;;;;;6257946;28;20187;-63
2024/01/28 10:53:33;;;;;;;3.97;1.60;;;4.00;54.30;;;;;;6248295;28;20209;-62
2024/01/28 10:56:37;;;;;;;3.33;2.40;;;4.00;54.70;;;;;;6243822;28;20190;-62
2024/01/28 10:59:39;;;;;;;3.40;2.30;;;4.10;54.30;;;;;;6258566;28;20198;-61
2024/01/28 11:02:41;;;;;;;3.17;1.67;;;4.10;54.50;;;;;;6255931;28;20229;-62
2024/01/28 11:05:42;;;;;;;2.07;1.90;;;4.20;54.50;;;;;;6245779;28;20195;-61
2024/01/28 11:08:43;;;;;;;4.67;2.83;;;4.40;54.00;;;;;;6233681;28;20197;-61
2024/01/28 11:11:44;;;;;;;2.97;2.00;;;4.50;52.90;;;;;;6264433;28;20182;-62
2024/01/28 11:14:46;;;;;;;2.93;1.87;;;;;;;;;;6253022;28;20189;-61
2024/01/28 11:17:47;;;;;;;4.50;1.97;;;;;;;;;;6258723;28;20232;-61
2024/01/28 11:20:48;;;;;;;6.93;2.40;;;;;;;;;;6260931;28;20294;-61
2024/01/28 11:23:49;;;;;;;4.10;2.07;;;;;;;;;;6262193;28;20293;-61
2024/01/28 11:26:51;;;;;;;5.27;2.10;;;;;;;;;;6255995;28;20186;-61
2024/01/28 11:29:56;;;;;;;2.90;1.90;;;;;;;;;;6281026;28;20190;-61
2024/01/28 11:33:09;;;;;;;5.87;1.90;;;;;;;;;;6260336;28;20301;-61
2024/01/28 11:36:09;;;;;;;3.90;1.80;;;4.50;52.70;;;;;;6258013;28;20195;-61
2024/01/28 11:39:15;;;;;;;3.73;2.37;;;5.00;50.90;;;;;;6247220;28;20201;-61
2024/01/28 11:42:16;;;;;;;3.27;1.93;;;5.10;51.20;;;;;;6266841;28;20275;-61
2024/01/28 11:45:17;;;;;;;6.17;2.07;;;5.30;50.50;;;;;;6247097;28;20197;-61
2024/01/28 11:48:18;;;;;;;3.37;2.20;;;5.30;50.50;;;;;;6245740;28;20226;-61
2024/01/28 11:51:19;;;;;;;4.60;2.07;;;5.50;50.20;;;;;;6253455;28;20198;-61
2024/01/28 11:54:19;;;;;;;4.17;2.43;;;5.50;50.10;;;;;;6240824;28;20299;-61
2024/01/28 11:57:20;;;;;;;4.90;2.50;;;5.60;50.30;;;;;;6247490;28;20201;-61
2024/01/28 12:00:21;;;;;;;4.87;2.63;;;5.80;50.10;;;;;;6251240;28;20245;-61
2024/01/28 12:03:22;;;;;;;3.60;2.20;;;5.90;50.20;;;;;;6244081;28;20217;-62
2024/01/28 12:06:27;;;;;;;6.10;2.50;;;6.10;49.70;;;;;;6240005;28;20214;-61
2024/01/28 12:09:29;;;;;;;6.30;3.10;;;6.20;50.20;;;;;;6248554;28;20290;-63
2024/01/28 12:12:34;;;;;;;5.03;2.13;;;24.00;50.00;;;;;;6241392;28;20201;-62
2024/01/28 12:15:35;;;;;;;4.30;2.40;;;6.50;49.80;;;;;;6239557;28;20213;-62
2024/01/28 12:18:41;;;;;;;7.23;2.67;;;6.60;49.90;;;;;;6265795;28;20202;-62
2024/01/28 12:21:42;;;;;;;3.27;2.20;;;6.70;50.00;;;;;;6269988;28;20272;-61
2024/01/28 12:24:47;;;;;;;4.83;2.77;;;6.90;50.00;;;;;;6267563;28;20209;-62
2024/01/28 12:28:03;;;;;;;5.23;1.97;;;7.00;49.50;;;;;;6275336;28;20209;-61
2024/01/28 12:31:04;;;;;;;4.70;2.20;;;7.00;49.00;;;;;;6246754;28;20198;-61
2024/01/28 12:34:16;;;;;;;4.67;2.03;;;7.20;48.60;;;;;;6242450;28;20190;-63
2024/01/28 12:37:19;;;;;;;5.50;2.00;;;7.20;47.30;;;;;;6248118;28;20191;-61
2024/01/28 12:40:20;;;;;;;2.20;1.77;;;7.20;47.30;;;;;;6258144;28;20197;-61
2024/01/28 12:43:21;;;;;;;3.07;2.10;;;7.30;47.00;;;;;;6245450;28;20253;-61
2024/01/28 12:46:21;;;;;;;5.07;2.17;;;7.40;45.90;;;;;;6251294;28;20560;-61
2024/01/28 12:49:23;;;;;;;5.67;2.20;;;;;;;;;;6254472;28;20195;-61
2024/01/28 12:52:24;;;;;;;4.10;1.80;;;7.50;46.20;;;;;;6255053;28;20221;-61
2024/01/28 12:55:24;;;;;;;5.30;1.97;;;7.60;45.00;;;;;;6274460;28;20204;-61
2024/01/28 12:58:25;;;;;;;4.60;2.00;;;7.60;44.00;;;;;;6252794;28;20194;-61
2024/01/28 13:01:26;;;;;;;3.30;1.80;;;7.80;44.20;;;;;;6257651;28;20249;-61
2024/01/28 13:04:28;;;;;;;3.97;2.03;;;7.80;43.50;;;;;;6236937;28;20279;-61
2024/01/28 13:07:29;;;;;;;4.77;2.10;;;7.80;43.30;;;;;;6242971;28;20186;-61
2024/01/28 13:10:29;;;;;;;2.87;1.60;;;7.90;43.20;;;;;;6260737;28;20197;-61
2024/01/28 13:13:31;;;;;;;2.40;1.70;;;8.10;43.70;;;;;;6251334;28;20203;-62
2024/01/28 13:16:32;;;;;;;3.27;2.00;;;8.20;43.00;;;;;;6250631;28;20201;-61
2024/01/28 13:19:33;;;;;;;5.20;1.70;;;8.30;41.50;;;;;;6248531;28;20197;-61
2024/01/28 13:22:34;;;;;;;2.87;1.73;;;8.30;41.80;;;;;;6248728;28;20306;-61
2024/01/28 13:25:35;;;;;;;2.47;1.40;;;8.50;41.60;;;;;;6255754;28;20190;-61
2024/01/28 13:28:35;;;;;;;1.70;1.20;;;8.50;41.70;;;;;;6250093;28;20288;-61
2024/01/28 13:31:36;;;;;;;3.77;1.40;;;8.60;41.70;;;;;;6254739;28;20240;-61
2024/01/28 13:34:37;;;;;;;2.27;1.50;;;8.70;40.50;;;;;;6266676;28;20198;-61
2024/01/28 13:37:40;;;;;;;2.77;1.90;;;8.60;39.70;;;;;;6247707;28;20192;-61
2024/01/28 13:40:42;;;;;;;2.47;1.70;;;8.70;39.70;;;;;;6263712;28;20246;-62
2024/01/28 13:43:43;;;;;;;2.47;1.80;;;8.90;39.20;;;;;;6243507;28;20206;-61
2024/01/28 13:46:43;;;;;;;2.67;1.67;;;9.00;39.30;;;;;;6261647;28;20208;-61
2024/01/28 13:49:44;;;;;;;4.27;1.90;;;9.20;38.60;;;;;;6251713;28;20191;-61
2024/01/28 13:52:45;;;;;;;3.27;2.20;;;;;;;;;;6271771;28;20204;-62
2024/01/28 13:55:46;;;;;;;7.27;3.50;;;;;;;;;;6271282;28;20201;-61
2024/01/28 13:58:47;;;;;;;3.67;2.20;;;9.20;38.30;;;;;;6266573;28;20194;-62
2024/01/28 14:01:48;;;;;;;3.20;2.10;;;10.00;36.80;;;;;;6266568;28;20249;-61
2024/01/28 14:04:48;;;;;;;3.90;2.10;;;10.00;36.80;;;;;;6266163;28;20315;-62
2024/01/28 14:07:49;;;;;;;2.57;2.37;;;9.90;36.40;;;;;;6263775;28;20198;-61
2024/01/28 14:10:50;;;;;;;3.20;2.50;;;9.80;36.70;;;;;;6270353;28;20188;-62
2024/01/28 14:13:51;;;;;;;2.97;1.50;;;9.80;36.90;;;;;;6255507;28;20194;-62
2024/01/28 14:16:52;;;;;;;4.37;2.07;;;;;;;;;;6251931;28;20196;-62
2024/01/28 14:19:53;;;;;;;3.53;2.10;;;;;;;;;;6254229;28;20235;-61
2024/01/28 14:22:54;;;;;;;3.83;2.63;;;;;;;;;;6259964;28;20237;-61
2024/01/28 14:25:55;;;;;;;1.70;1.60;;;;;;;;;;6291377;28;20201;-61
2024/01/28 14:28:56;;;;;;;4.10;2.37;;;;;;;;;;6249326;28;20202;-62
2024/01/28 14:31:57;;;;;;;2.93;1.63;;;;;;;;;;6245221;28;20202;-61
2024/01/28 14:34:58;;;;;;;53.90;24.73;;;;;;;;;;6255192;28;20225;-61
2024/01/28 14:37:59;;;;;;;4.77;1.70;;;;;;;;;;6247154;28;20291;-61
2024/01/28 14:41:00;;;;;;;8.73;4.85;;;;;;;;;;6292972;28;20747;-61
2024/01/28 14:44:01;;;;;;;3.80;2.00;;;;;;;;;;6267615;28;20211;-61
2024/01/28 14:47:02;;;;;;;3.17;1.80;;;;;;;;;;6238478;28;20202;-61
2024/01/28 14:50:04;;;;;;;2.57;2.37;;;;;;;;;;6279653;28;20637;-61
2024/01/28 14:53:05;;;;;;;4.70;2.17;;;;;;;;;;6296424;28;20195;-61
2024/01/28 14:56:07;;;;;;;2.60;1.50;;;;;;;;;;6282336;28;20197;-61
2024/01/28 14:59:08;;;;;;;2.63;2.00;;;;;;;;;;6262944;28;20199;-61
2024/01/28 15:02:09;;;;;;;3.30;1.87;;;;;;;;;;6268834;28;20254;-61
2024/01/28 15:05:10;;;;;;;3.47;1.80;;;;;;;;;;6294988;28;20182;-61
2024/01/28 15:08:11;;;;;;;3.90;1.80;;;;;;;;;;6248648;28;20198;-61
2024/01/28 15:11:12;;;;;;;4.53;2.23;;;;;;;;;;6254938;28;20194;-61
2024/01/28 15:14:13;;;;;;;3.73;2.20;;;;;;;;;;6264341;28;20190;-61
2024/01/28 15:17:14;;;;;;;3.03;2.23;;;;;;;;;;6264231;28;20637;-61
2024/01/28 15:20:20;;;;;;;4.73;2.30;;;;;;;;;;6272906;28;20247;-61
2024/01/28 15:23:21;;;;;;;2.13;1.90;;;;;;;;;;6268743;28;20212;-62
2024/01/28 15:26:22;;;;;;;2.13;1.70;;;;;;;;;;6254554;28;20244;-61
2024/01/28 15:29:23;;;;;;;2.63;1.90;;;;;;;;;;6272270;28;20207;-62
2024/01/28 15:32:25;;;;;;;4.10;2.00;;;;;;;;;;6249443;28;20217;-61
2024/01/28 15:35:26;;;;;;;2.73;2.00;;;;;;;;;;6258892;28;20226;-61
2024/01/28 15:38:27;;;;;;;2.53;2.00;;;10.00;37.60;;;;;;6248826;28;20202;-61
2024/01/28 15:41:27;;;;;;;4.60;2.20;;;7.20;43.90;;;;;;6244064;28;20208;-62
2024/01/28 15:44:28;;;;;;;4.77;2.13;;;6.90;44.30;;;;;;6264706;28;20217;-63
2024/01/28 15:47:29;;;;;;;3.17;1.80;;;6.70;44.60;;;;;;6248868;28;20214;-61
2024/01/28 15:50:30;;;;;;;4.53;2.30;;;6.50;45.30;;;;;;6250072;28;20196;-61
2024/01/28 15:53:30;;;;;;;5.73;3.27;;;6.40;46.10;;;;;;6253476;28;20289;-61
2024/01/28 15:56:32;;;;;;;5.50;3.30;;;6.10;46.40;;;;;;6255316;28;20205;-67
2024/01/28 15:59:35;;;;;;;3.60;2.60;;;5.90;47.30;;;;;;6252047;28;20221;-67
2024/01/28 16:02:36;;;;;;;5.13;2.10;;;;;;;;;;6240162;28;20287;-70
2024/01/28 16:05:38;;;;;;;2.40;2.00;;;24.00;50.00;;;;;;6270409;28;20239;-67